createdAt,value
2023-05-07T00:04:47.663Z,101628.84
2023-05-07T00:09:37.664Z,101634.13
2023-05-07T00:14:27.537Z,101653.22
2023-05-07T00:19:17.722Z,101654.09
2023-05-07T00:24:10.438Z,101610.81
2023-05-07T00:29:00.276Z,101578.69
2023-05-07T00:33:50.191Z,101639.38
2023-05-07T00:38:40.739Z,101647.16
2023-05-07T00:43:33.402Z,101639.38
2023-05-07T00:48:25.472Z,101621.19
2023-05-07T00:53:16.160Z,101643.72
2023-05-07T00:58:08.181Z,101628.19
2023-05-07T01:03:01.514Z,101625.63
2023-05-07T01:07:54.113Z,101634.31
2023-05-07T01:12:45.082Z,101592.72
2023-05-07T01:17:37.723Z,101601.41
2023-05-07T01:22:37.749Z,101633.47
2023-05-07T01:27:27.978Z,101618.72
2023-05-07T01:32:19.745Z,101604.88
2023-05-07T01:37:09.888Z,101619.59
2023-05-07T01:42:03.465Z,101609.19
2023-05-07T01:46:53.823Z,101604.78
2023-05-07T01:51:44.642Z,101595.31
2023-05-07T01:56:35.066Z,101606.63
2023-05-07T02:01:28.931Z,101597.88
2023-05-07T02:06:20.881Z,101593.56
2023-05-07T02:11:16.304Z,101592.09
2023-05-07T02:16:06.845Z,101586.03
2023-05-07T02:20:59.823Z,101616.28
2023-05-07T02:25:50.585Z,101592.06
2023-05-07T02:30:41.404Z,101579.03
2023-05-07T02:35:32.163Z,101608.59
2023-05-07T02:40:25.098Z,101609.28
2023-05-07T02:45:15.627Z,101596.25
2023-05-07T02:50:07.757Z,101605.88
2023-05-07T02:54:57.877Z,101589.50
2023-05-07T02:59:52.978Z,101587.78
2023-05-07T03:04:45.190Z,101605.16
2023-05-07T03:09:35.818Z,101596.50
2023-05-07T03:14:25.996Z,101592.91
2023-05-07T03:19:18.659Z,101600.66
2023-05-07T03:24:09.654Z,101601.59
2023-05-07T03:28:59.655Z,101595.53
2023-05-07T03:33:56.783Z,101606.84
2023-05-07T03:38:50.526Z,101606.16
2023-05-07T03:43:43.981Z,101608.75
2023-05-07T03:48:35.785Z,101608.72
2023-05-07T03:53:25.716Z,101578.38
2023-05-07T03:58:18.253Z,101613.06
2023-05-07T04:03:08.893Z,101619.13
2023-05-07T04:07:58.971Z,101617.41
2023-05-07T04:12:58.245Z,101631.28
2023-05-07T04:17:52.852Z,101625.19
2023-05-07T04:22:45.578Z,101615.66
2023-05-07T04:27:35.733Z,101633.00
2023-05-07T04:32:26.724Z,101625.19
2023-05-07T04:37:19.611Z,101629.50
2023-05-07T04:42:10.099Z,101587.03
2023-05-07T04:47:00.633Z,101619.09
2023-05-07T04:51:50.802Z,101627.78
2023-05-07T04:56:46.886Z,101623.47
2023-05-07T05:01:37.197Z,101629.53
2023-05-07T05:06:30.246Z,101638.16
2023-05-07T05:11:20.225Z,101641.66
2023-05-07T05:16:14.313Z,101652.09
2023-05-07T05:21:04.920Z,101645.13
2023-05-07T05:25:59.832Z,101657.25
2023-05-07T05:30:52.894Z,101638.22
2023-05-07T05:35:46.202Z,101632.13
2023-05-07T05:40:42.399Z,101681.59
2023-05-07T05:45:32.601Z,101680.72
2023-05-07T05:50:23.222Z,101689.44
2023-05-07T05:55:20.478Z,101691.16
2023-05-07T06:00:12.403Z,101690.25
2023-05-07T06:05:10.026Z,101663.34
2023-05-07T06:10:00.455Z,101705.84
2023-05-07T06:14:56.888Z,101680.69
2023-05-07T06:19:53.226Z,101676.38
2023-05-07T06:24:47.496Z,101691.09
2023-05-07T06:29:37.830Z,101679.88
2023-05-07T06:34:37.778Z,101674.69
2023-05-07T06:39:31.735Z,101704.94
2023-05-07T06:44:21.909Z,101693.59
2023-05-07T06:49:22.418Z,101692.59
2023-05-07T06:54:15.950Z,101688.22
2023-05-07T06:59:07.835Z,101694.16
2023-05-07T07:04:02.609Z,101688.03
2023-05-07T07:08:55.406Z,101680.94
2023-05-07T07:13:48.044Z,101697.50
2023-05-07T07:18:38.296Z,101657.69
2023-05-07T07:23:28.359Z,101694.97
2023-05-07T07:28:18.595Z,101703.63
2023-05-07T07:33:11.289Z,101708.75
2023-05-07T07:38:03.406Z,101716.59
2023-05-07T07:42:53.788Z,101712.25
2023-05-07T07:47:44.400Z,101712.16
2023-05-07T07:52:37.604Z,101707.84
2023-05-07T07:57:28.029Z,101719.94
2023-05-07T08:02:18.825Z,101719.94
2023-05-07T08:07:09.221Z,101725.19
2023-05-07T08:12:05.527Z,101726.88
2023-05-07T08:16:57.059Z,101730.97
2023-05-07T08:21:48.822Z,101716.09
2023-05-07T08:26:40.600Z,101722.81
2023-05-07T08:31:35.151Z,101734.66
2023-05-07T08:36:25.174Z,101730.81
2023-05-07T08:41:14.976Z,101733.09
2023-05-07T08:46:10.180Z,101719.59
2023-05-07T08:51:06.195Z,101727.66
2023-05-07T08:55:57.288Z,101716.25
2023-05-07T09:00:47.764Z,101731.47
2023-05-07T09:05:38.278Z,101735.44
2023-05-07T09:10:36.511Z,101740.03
2023-05-07T09:15:27.466Z,101741.06
2023-05-07T09:20:17.865Z,101747.00
2023-05-07T09:25:08.726Z,101746.63
2023-05-07T09:30:02.382Z,101755.41
2023-05-07T09:34:52.319Z,101754.53
2023-05-07T09:39:46.086Z,101746.59
2023-05-07T09:44:38.089Z,101754.41
2023-05-07T09:49:37.322Z,101749.16
2023-05-07T09:54:32.288Z,101751.88
2023-05-07T09:59:22.742Z,101755.25
2023-05-07T10:04:13.823Z,101751.19
2023-05-07T10:09:09.351Z,101751.75
2023-05-07T10:14:01.425Z,101741.22
2023-05-07T10:18:54.466Z,101751.69
2023-05-07T10:23:49.533Z,101749.78
2023-05-07T10:28:47.192Z,101756.00
2023-05-07T10:33:38.702Z,101750.41
2023-05-07T10:38:29.359Z,101759.09
2023-05-07T10:43:20.300Z,101756.75
2023-05-07T10:48:30.357Z,101751.84
2023-05-07T10:53:31.465Z,101764.31
2023-05-07T10:58:32.870Z,101769.38
2023-05-07T11:04:25.864Z,101773.25
2023-05-07T11:09:28.637Z,101775.75
2023-05-07T11:14:35.782Z,101778.56
2023-05-07T11:19:47.765Z,101774.97
2023-05-07T11:24:46.343Z,101775.41
2023-05-07T11:29:37.396Z,101780.28
2023-05-07T11:34:31.327Z,101785.84
2023-05-07T11:39:29.208Z,101783.50
2023-05-07T11:44:21.588Z,101779.56
2023-05-07T11:49:11.435Z,101778.09
2023-05-07T11:54:01.013Z,101780.34
2023-05-07T11:58:53.322Z,101785.69
2023-05-07T12:03:47.377Z,101786.22
2023-05-07T12:08:40.266Z,101785.47
2023-05-07T12:13:30.114Z,101786.63
2023-05-07T12:18:25.022Z,101791.19
2023-05-07T12:23:17.911Z,101785.72
2023-05-07T12:28:08.071Z,101790.19
2023-05-07T12:32:58.034Z,101807.91
2023-05-07T12:37:47.744Z,101830.34
2023-05-07T12:42:40.469Z,101842.38
2023-05-07T12:47:30.246Z,101833.38
2023-05-07T12:52:20.016Z,101847.47
2023-05-07T12:57:10.867Z,101852.19
2023-05-07T13:02:03.213Z,101859.38
2023-05-07T13:06:52.896Z,101860.53
2023-05-07T13:11:43.077Z,101842.50
2023-05-07T13:16:33.444Z,101845.13
2023-05-07T13:21:26.153Z,101838.09
2023-05-07T13:26:26.357Z,101863.34
2023-05-07T13:31:17.304Z,101850.38
2023-05-07T13:36:08.326Z,101860.59
2023-05-07T13:41:01.046Z,101857.94
2023-05-07T13:45:53.352Z,101850.13
2023-05-07T13:50:45.661Z,101851.72
2023-05-07T13:55:37.558Z,101835.16
2023-05-07T14:00:33.805Z,101817.78
2023-05-07T14:05:30.656Z,101838.63
2023-05-07T14:10:25.155Z,101807.72
2023-05-07T14:15:19.910Z,101808.66
2023-05-07T14:20:14.637Z,101864.69
2023-05-07T14:25:14.736Z,101847.03
2023-05-07T14:30:16.487Z,101869.38
2023-05-07T14:35:06.594Z,101870.16
2023-05-07T14:39:59.164Z,101838.75
2023-05-07T14:44:59.109Z,101806.34
2023-05-07T14:49:51.654Z,101809.69
2023-05-07T14:54:42.287Z,101810.59
2023-05-07T14:59:35.090Z,101828.78
2023-05-07T15:04:27.592Z,101832.25
2023-05-07T15:09:17.569Z,101851.31
2023-05-07T15:14:08.575Z,101851.97
2023-05-07T15:19:01.185Z,101863.78
2023-05-07T15:23:52.355Z,101825.44
2023-05-07T15:28:42.430Z,101871.22
2023-05-07T15:33:32.360Z,101851.16
2023-05-07T15:38:24.616Z,101876.47
2023-05-07T15:43:15.372Z,101873.66
2023-05-07T15:48:05.357Z,101812.50
2023-05-07T15:52:55.570Z,101868.19
2023-05-07T15:57:47.876Z,101873.53
2023-05-07T16:02:37.859Z,101878.22
2023-05-07T16:07:27.698Z,101876.66
2023-05-07T16:12:18.338Z,101878.59
2023-05-07T16:17:11.389Z,101882.34
2023-05-07T16:22:01.311Z,101863.63
2023-05-07T16:26:51.150Z,101896.22
2023-05-07T16:31:41.163Z,101893.00
2023-05-07T16:36:33.826Z,101887.94
2023-05-07T16:41:24.131Z,101894.19
2023-05-07T16:46:14.184Z,101872.91
2023-05-07T16:51:04.199Z,101902.50
2023-05-07T16:55:56.839Z,101893.91
2023-05-07T17:00:50.733Z,101890.56
2023-05-07T17:05:41.537Z,101898.53
2023-05-07T17:10:31.424Z,101902.03
2023-05-07T17:15:26.734Z,101903.81
2023-05-07T17:20:17.444Z,101907.44
2023-05-07T17:25:08.174Z,101915.31
2023-05-07T17:29:58.799Z,101878.09
2023-05-07T17:34:51.638Z,101917.25
2023-05-07T17:39:41.497Z,101907.56
2023-05-07T17:44:31.518Z,101928.47
2023-05-07T17:49:27.353Z,101921.59
2023-05-07T17:54:20.088Z,101863.56
2023-05-07T17:59:09.972Z,101889.66
2023-05-07T18:04:00.677Z,101951.31
2023-05-07T18:08:51.093Z,101904.47
2023-05-07T18:13:44.850Z,101931.47
2023-05-07T18:18:37.774Z,101887.25
2023-05-07T18:23:27.951Z,101902.06
2023-05-07T18:28:18.209Z,101951.63
2023-05-07T18:33:10.743Z,101947.34
2023-05-07T18:38:00.863Z,101930.91
2023-05-07T18:42:50.884Z,101954.34
2023-05-07T18:47:41.115Z,101971.81
2023-05-07T18:52:33.919Z,101921.50
2023-05-07T18:57:24.974Z,101989.13
2023-05-07T19:02:16.910Z,101988.34
2023-05-07T19:07:08.909Z,101993.53
2023-05-07T19:12:03.761Z,101945.78
2023-05-07T19:16:55.339Z,101989.22
2023-05-07T19:21:45.337Z,102011.00
2023-05-07T19:26:35.454Z,102003.25
2023-05-07T19:31:33.023Z,102017.09
2023-05-07T19:36:24.031Z,101987.63
2023-05-07T19:41:14.711Z,102033.69
2023-05-07T19:46:04.693Z,102008.59
2023-05-07T19:50:57.385Z,101989.50
2023-05-07T19:55:47.452Z,102046.88
2023-05-07T20:00:37.801Z,102048.59
2023-05-07T20:05:28.397Z,102043.38
2023-05-07T20:10:21.416Z,102041.66
2023-05-07T20:15:13.181Z,102051.22
2023-05-07T20:20:04.044Z,102055.56
2023-05-07T20:24:53.992Z,102057.34
2023-05-07T20:29:46.410Z,102066.88
2023-05-07T20:34:36.512Z,102061.75
2023-05-07T20:39:27.010Z,102061.69
2023-05-07T20:44:17.441Z,102074.78
2023-05-07T20:49:09.914Z,102070.41
2023-05-07T20:53:59.736Z,102073.09
2023-05-07T20:58:49.672Z,102054.81
2023-05-07T21:03:46.156Z,102074.81
2023-05-07T21:08:38.800Z,102024.44
2023-05-07T21:13:28.699Z,102079.19
2023-05-07T21:18:19.108Z,102091.50
2023-05-07T21:23:08.957Z,102084.59
2023-05-07T21:28:01.506Z,102083.72
2023-05-07T21:32:54.203Z,102082.88
2023-05-07T21:37:46.509Z,102100.25
2023-05-07T21:42:36.428Z,102105.47
2023-05-07T21:47:29.081Z,102107.19
2023-05-07T21:52:20.908Z,102108.06
2023-05-07T21:57:11.331Z,102089.84
2023-05-07T22:02:01.364Z,102104.63
2023-05-07T22:06:53.976Z,102059.41
2023-05-07T22:11:43.910Z,102064.63
2023-05-07T22:16:33.782Z,102113.41
2023-05-07T22:21:23.789Z,102092.50
2023-05-07T22:26:17.008Z,102087.28
2023-05-07T22:31:06.899Z,102103.81
2023-05-07T22:35:56.793Z,102102.09
2023-05-07T22:40:46.670Z,102110.84
2023-05-07T22:45:39.373Z,102105.59
2023-05-07T22:50:29.249Z,102104.78
2023-05-07T22:55:19.288Z,102115.25
2023-05-07T23:00:11.082Z,102113.53
2023-05-07T23:05:04.640Z,102114.44
2023-05-07T23:09:54.518Z,102096.19
2023-05-07T23:14:44.273Z,102083.13
2023-05-07T23:19:34.178Z,102077.91
2023-05-07T23:24:26.776Z,102078.78
2023-05-07T23:29:19.049Z,102097.94
2023-05-07T23:34:08.968Z,102096.13
2023-05-07T23:38:58.875Z,102089.25
2023-05-07T23:43:51.562Z,102094.47
2023-05-07T23:48:43.231Z,102102.31
2023-05-07T23:53:33.421Z,102077.94
2023-05-07T23:58:23.342Z,102099.69
